sensor_id;sensor_type;location;lat;lon;timestamp;P1;durP1;ratioP1;P2;durP2;ratioP2
23658;SDS011;12006;42.666;23.326;2023-07-13T00:01:44;6.30;;;4.55;;
23658;SDS011;12006;42.666;23.326;2023-07-13T00:04:11;7.50;;;4.93;;
23658;SDS011;12006;42.666;23.326;2023-07-13T00:06:37;9.88;;;5.30;;
23658;SDS011;12006;42.666;23.326;2023-07-13T00:09:02;6.18;;;4.68;;
23658;SDS011;12006;42.666;23.326;2023-07-13T00:11:27;6.50;;;4.35;;
23658;SDS011;12006;42.666;23.326;2023-07-13T00:13:53;8.30;;;4.80;;
23658;SDS011;12006;42.666;23.326;2023-07-13T00:16:19;5.88;;;4.07;;
23658;SDS011;12006;42.666;23.326;2023-07-13T00:18:45;6.38;;;4.30;;
23658;SDS011;12006;42.666;23.326;2023-07-13T00:21:11;8.20;;;4.65;;
23658;SDS011;12006;42.666;23.326;2023-07-13T00:23:38;6.07;;;4.65;;
23658;SDS011;12006;42.666;23.326;2023-07-13T00:26:06;4.70;;;4.00;;
23658;SDS011;12006;42.666;23.326;2023-07-13T00:28:34;4.82;;;4.10;;
23658;SDS011;12006;42.666;23.326;2023-07-13T00:31:00;6.32;;;4.72;;
23658;SDS011;12006;42.666;23.326;2023-07-13T00:33:29;5.80;;;4.28;;
23658;SDS011;12006;42.666;23.326;2023-07-13T00:35:55;7.78;;;4.25;;
23658;SDS011;12006;42.666;23.326;2023-07-13T00:38:21;4.97;;;4.32;;
23658;SDS011;12006;42.666;23.326;2023-07-13T00:40:47;6.15;;;4.25;;
23658;SDS011;12006;42.666;23.326;2023-07-13T00:43:15;4.75;;;3.97;;
23658;SDS011;12006;42.666;23.326;2023-07-13T00:48:11;8.35;;;4.68;;
23658;SDS011;12006;42.666;23.326;2023-07-13T00:50:39;5.88;;;4.28;;
23658;SDS011;12006;42.666;23.326;2023-07-13T00:53:06;7.70;;;4.75;;
23658;SDS011;12006;42.666;23.326;2023-07-13T00:55:32;6.90;;;4.20;;
23658;SDS011;12006;42.666;23.326;2023-07-13T00:57:58;5.30;;;4.47;;
23658;SDS011;12006;42.666;23.326;2023-07-13T01:00:24;7.03;;;4.82;;
23658;SDS011;12006;42.666;23.326;2023-07-13T01:02:51;5.18;;;4.63;;
23658;SDS011;12006;42.666;23.326;2023-07-13T01:05:18;6.57;;;4.72;;
23658;SDS011;12006;42.666;23.326;2023-07-13T01:07:45;7.07;;;4.70;;
23658;SDS011;12006;42.666;23.326;2023-07-13T01:10:13;6.60;;;4.60;;
23658;SDS011;12006;42.666;23.326;2023-07-13T01:12:39;7.53;;;4.38;;
23658;SDS011;12006;42.666;23.326;2023-07-13T01:15:05;6.75;;;4.75;;
23658;SDS011;12006;42.666;23.326;2023-07-13T01:17:51;5.35;;;4.25;;
23658;SDS011;12006;42.666;23.326;2023-07-13T01:20:16;7.43;;;5.35;;
23658;SDS011;12006;42.666;23.326;2023-07-13T01:22:42;6.88;;;5.05;;
23658;SDS011;12006;42.666;23.326;2023-07-13T01:25:07;9.63;;;6.20;;
23658;SDS011;12006;42.666;23.326;2023-07-13T01:27:33;5.47;;;4.53;;
23658;SDS011;12006;42.666;23.326;2023-07-13T01:29:59;7.40;;;4.32;;
23658;SDS011;12006;42.666;23.326;2023-07-13T01:32:29;7.72;;;4.95;;
23658;SDS011;12006;42.666;23.326;2023-07-13T01:34:56;7.07;;;5.10;;
23658;SDS011;12006;42.666;23.326;2023-07-13T01:37:22;5.53;;;4.60;;
23658;SDS011;12006;42.666;23.326;2023-07-13T01:39:49;7.15;;;5.20;;
23658;SDS011;12006;42.666;23.326;2023-07-13T01:42:14;7.80;;;5.63;;
23658;SDS011;12006;42.666;23.326;2023-07-13T01:44:40;7.85;;;5.07;;
23658;SDS011;12006;42.666;23.326;2023-07-13T01:47:06;5.78;;;4.43;;
23658;SDS011;12006;42.666;23.326;2023-07-13T01:49:31;7.95;;;5.68;;
23658;SDS011;12006;42.666;23.326;2023-07-13T01:51:56;5.22;;;4.70;;
23658;SDS011;12006;42.666;23.326;2023-07-13T01:54:22;7.00;;;4.80;;
23658;SDS011;12006;42.666;23.326;2023-07-13T01:56:47;9.65;;;5.10;;
23658;SDS011;12006;42.666;23.326;2023-07-13T01:59:13;6.30;;;4.75;;
23658;SDS011;12006;42.666;23.326;2023-07-13T02:01:38;6.05;;;4.93;;
23658;SDS011;12006;42.666;23.326;2023-07-13T02:04:04;5.60;;;4.80;;
23658;SDS011;12006;42.666;23.326;2023-07-13T02:06:29;5.75;;;5.20;;
23658;SDS011;12006;42.666;23.326;2023-07-13T02:08:55;6.10;;;4.78;;
23658;SDS011;12006;42.666;23.326;2023-07-13T02:11:20;7.13;;;5.22;;
23658;SDS011;12006;42.666;23.326;2023-07-13T02:13:46;7.80;;;4.90;;
23658;SDS011;12006;42.666;23.326;2023-07-13T02:16:11;6.60;;;5.40;;
23658;SDS011;12006;42.666;23.326;2023-07-13T02:18:37;6.35;;;5.32;;
23658;SDS011;12006;42.666;23.326;2023-07-13T02:21:02;5.15;;;4.65;;
23658;SDS011;12006;42.666;23.326;2023-07-13T02:23:28;12.35;;;4.93;;
23658;SDS011;12006;42.666;23.326;2023-07-13T02:25:57;6.00;;;4.75;;
23658;SDS011;12006;42.666;23.326;2023-07-13T02:28:23;6.43;;;5.18;;
23658;SDS011;12006;42.666;23.326;2023-07-13T02:30:49;5.45;;;4.93;;
23658;SDS011;12006;42.666;23.326;2023-07-13T02:33:15;6.20;;;4.97;;
23658;SDS011;12006;42.666;23.326;2023-07-13T02:35:40;5.43;;;4.53;;
23658;SDS011;12006;42.666;23.326;2023-07-13T02:38:06;6.65;;;5.00;;
23658;SDS011;12006;42.666;23.326;2023-07-13T02:40:32;6.80;;;5.25;;
23658;SDS011;12006;42.666;23.326;2023-07-13T02:43:01;6.10;;;4.75;;
23658;SDS011;12006;42.666;23.326;2023-07-13T02:45:27;6.35;;;4.75;;
23658;SDS011;12006;42.666;23.326;2023-07-13T02:47:52;8.70;;;4.95;;
23658;SDS011;12006;42.666;23.326;2023-07-13T02:50:19;6.28;;;4.72;;
23658;SDS011;12006;42.666;23.326;2023-07-13T02:52:44;6.55;;;4.88;;
23658;SDS011;12006;42.666;23.326;2023-07-13T02:55:10;6.95;;;5.50;;
23658;SDS011;12006;42.666;23.326;2023-07-13T02:57:35;6.22;;;4.80;;
23658;SDS011;12006;42.666;23.326;2023-07-13T03:00:01;5.43;;;4.60;;
23658;SDS011;12006;42.666;23.326;2023-07-13T03:02:30;7.25;;;5.05;;
23658;SDS011;12006;42.666;23.326;2023-07-13T03:04:57;5.78;;;4.88;;
23658;SDS011;12006;42.666;23.326;2023-07-13T03:07:22;9.45;;;5.25;;
23658;SDS011;12006;42.666;23.326;2023-07-13T03:09:48;6.55;;;5.20;;
23658;SDS011;12006;42.666;23.326;2023-07-13T03:12:13;9.48;;;5.38;;
23658;SDS011;12006;42.666;23.326;2023-07-13T03:14:38;5.45;;;4.93;;
23658;SDS011;12006;42.666;23.326;2023-07-13T03:17:04;7.18;;;5.13;;
23658;SDS011;12006;42.666;23.326;2023-07-13T03:19:29;6.60;;;4.97;;
23658;SDS011;12006;42.666;23.326;2023-07-13T03:21:54;7.72;;;5.55;;
23658;SDS011;12006;42.666;23.326;2023-07-13T03:24:20;5.78;;;5.07;;
23658;SDS011;12006;42.666;23.326;2023-07-13T03:26:45;7.50;;;5.32;;
23658;SDS011;12006;42.666;23.326;2023-07-13T03:29:11;6.90;;;5.55;;
23658;SDS011;12006;42.666;23.326;2023-07-13T03:31:36;6.65;;;5.30;;
23658;SDS011;12006;42.666;23.326;2023-07-13T03:34:02;8.45;;;5.55;;
23658;SDS011;12006;42.666;23.326;2023-07-13T03:36:28;9.80;;;6.28;;
23658;SDS011;12006;42.666;23.326;2023-07-13T03:38:56;7.75;;;5.20;;
23658;SDS011;12006;42.666;23.326;2023-07-13T03:41:23;5.60;;;5.10;;
23658;SDS011;12006;42.666;23.326;2023-07-13T03:43:49;6.00;;;5.05;;
23658;SDS011;12006;42.666;23.326;2023-07-13T03:46:15;7.07;;;5.47;;
23658;SDS011;12006;42.666;23.326;2023-07-13T03:48:43;7.57;;;6.75;;
23658;SDS011;12006;42.666;23.326;2023-07-13T03:51:10;6.60;;;5.80;;
23658;SDS011;12006;42.666;23.326;2023-07-13T03:53:37;7.32;;;5.95;;
23658;SDS011;12006;42.666;23.326;2023-07-13T03:56:04;6.50;;;5.75;;
23658;SDS011;12006;42.666;23.326;2023-07-13T04:00:57;8.27;;;5.38;;
23658;SDS011;12006;42.666;23.326;2023-07-13T04:03:23;6.35;;;5.75;;
23658;SDS011;12006;42.666;23.326;2023-07-13T04:05:49;7.68;;;6.22;;
23658;SDS011;12006;42.666;23.326;2023-07-13T04:08:15;8.63;;;6.22;;
23658;SDS011;12006;42.666;23.326;2023-07-13T04:10:40;8.10;;;5.70;;
23658;SDS011;12006;42.666;23.326;2023-07-13T04:13:06;6.97;;;6.28;;
23658;SDS011;12006;42.666;23.326;2023-07-13T04:15:32;11.40;;;6.93;;
23658;SDS011;12006;42.666;23.326;2023-07-13T04:17:58;8.63;;;6.45;;
23658;SDS011;12006;42.666;23.326;2023-07-13T04:20:24;7.13;;;6.40;;
23658;SDS011;12006;42.666;23.326;2023-07-13T04:22:50;8.10;;;6.68;;
23658;SDS011;12006;42.666;23.326;2023-07-13T04:25:18;7.72;;;6.97;;
23658;SDS011;12006;42.666;23.326;2023-07-13T04:27:43;7.25;;;6.32;;
23658;SDS011;12006;42.666;23.326;2023-07-13T04:30:09;9.60;;;7.20;;
23658;SDS011;12006;42.666;23.326;2023-07-13T04:32:34;10.30;;;6.80;;
23658;SDS011;12006;42.666;23.326;2023-07-13T04:35:00;10.68;;;6.88;;
23658;SDS011;12006;42.666;23.326;2023-07-13T04:37:29;7.25;;;6.55;;
23658;SDS011;12006;42.666;23.326;2023-07-13T04:39:54;7.20;;;6.60;;
23658;SDS011;12006;42.666;23.326;2023-07-13T04:42:20;7.53;;;6.82;;
23658;SDS011;12006;42.666;23.326;2023-07-13T04:44:49;7.60;;;6.35;;
23658;SDS011;12006;42.666;23.326;2023-07-13T04:47:15;9.00;;;8.10;;
23658;SDS011;12006;42.666;23.326;2023-07-13T04:49:40;8.32;;;6.95;;
23658;SDS011;12006;42.666;23.326;2023-07-13T04:52:06;8.52;;;7.55;;
23658;SDS011;12006;42.666;23.326;2023-07-13T04:54:32;9.07;;;8.23;;
23658;SDS011;12006;42.666;23.326;2023-07-13T04:56:58;9.63;;;8.70;;
23658;SDS011;12006;42.666;23.326;2023-07-13T04:59:24;9.95;;;8.77;;
23658;SDS011;12006;42.666;23.326;2023-07-13T05:01:49;10.13;;;9.10;;
23658;SDS011;12006;42.666;23.326;2023-07-13T05:04:14;9.63;;;8.68;;
23658;SDS011;12006;42.666;23.326;2023-07-13T05:06:40;9.50;;;8.52;;
23658;SDS011;12006;42.666;23.326;2023-07-13T05:09:05;9.73;;;8.73;;
23658;SDS011;12006;42.666;23.326;2023-07-13T05:11:32;9.55;;;8.55;;
23658;SDS011;12006;42.666;23.326;2023-07-13T05:13:57;10.52;;;9.20;;
23658;SDS011;12006;42.666;23.326;2023-07-13T05:16:23;9.07;;;7.93;;
23658;SDS011;12006;42.666;23.326;2023-07-13T05:18:48;10.25;;;9.15;;
23658;SDS011;12006;42.666;23.326;2023-07-13T05:21:14;9.55;;;8.65;;
23658;SDS011;12006;42.666;23.326;2023-07-13T05:23:39;10.07;;;9.10;;
23658;SDS011;12006;42.666;23.326;2023-07-13T05:26:08;13.80;;;11.93;;
23658;SDS011;12006;42.666;23.326;2023-07-13T05:28:34;14.57;;;12.57;;
23658;SDS011;12006;42.666;23.326;2023-07-13T05:30:59;10.77;;;9.60;;
23658;SDS011;12006;42.666;23.326;2023-07-13T05:33:25;9.55;;;8.65;;
23658;SDS011;12006;42.666;23.326;2023-07-13T05:35:51;10.13;;;9.05;;
23658;SDS011;12006;42.666;23.326;2023-07-13T05:38:17;9.55;;;8.65;;
23658;SDS011;12006;42.666;23.326;2023-07-13T05:40:46;8.85;;;8.00;;
23658;SDS011;12006;42.666;23.326;2023-07-13T05:43:12;9.73;;;8.65;;
23658;SDS011;12006;42.666;23.326;2023-07-13T05:45:38;9.15;;;8.25;;
23658;SDS011;12006;42.666;23.326;2023-07-13T05:48:03;9.07;;;7.95;;
23658;SDS011;12006;42.666;23.326;2023-07-13T05:50:28;9.52;;;8.18;;
23658;SDS011;12006;42.666;23.326;2023-07-13T05:52:54;9.40;;;8.27;;
23658;SDS011;12006;42.666;23.326;2023-07-13T05:55:20;9.70;;;8.63;;
23658;SDS011;12006;42.666;23.326;2023-07-13T05:57:46;9.98;;;8.93;;
23658;SDS011;12006;42.666;23.326;2023-07-13T06:00:12;8.68;;;7.80;;
23658;SDS011;12006;42.666;23.326;2023-07-13T06:02:37;12.43;;;9.20;;
23658;SDS011;12006;42.666;23.326;2023-07-13T06:05:03;12.02;;;9.27;;
23658;SDS011;12006;42.666;23.326;2023-07-13T06:07:29;11.07;;;8.75;;
23658;SDS011;12006;42.666;23.326;2023-07-13T06:09:54;9.50;;;8.50;;
23658;SDS011;12006;42.666;23.326;2023-07-13T06:12:20;12.88;;;10.43;;
23658;SDS011;12006;42.666;23.326;2023-07-13T06:14:45;10.52;;;9.50;;
23658;SDS011;12006;42.666;23.326;2023-07-13T06:17:10;10.20;;;8.65;;
23658;SDS011;12006;42.666;23.326;2023-07-13T06:19:36;9.13;;;8.32;;
23658;SDS011;12006;42.666;23.326;2023-07-13T06:22:01;9.27;;;8.38;;
23658;SDS011;12006;42.666;23.326;2023-07-13T06:24:27;8.40;;;7.57;;
23658;SDS011;12006;42.666;23.326;2023-07-13T06:26:52;8.55;;;7.63;;
23658;SDS011;12006;42.666;23.326;2023-07-13T06:29:17;8.25;;;7.45;;
23658;SDS011;12006;42.666;23.326;2023-07-13T06:31:43;8.13;;;7.32;;
23658;SDS011;12006;42.666;23.326;2023-07-13T06:34:08;8.68;;;7.45;;
23658;SDS011;12006;42.666;23.326;2023-07-13T06:36:33;9.48;;;8.20;;
23658;SDS011;12006;42.666;23.326;2023-07-13T06:39:01;8.73;;;7.82;;
23658;SDS011;12006;42.666;23.326;2023-07-13T06:41:27;7.38;;;6.68;;
23658;SDS011;12006;42.666;23.326;2023-07-13T06:43:52;9.95;;;8.10;;
23658;SDS011;12006;42.666;23.326;2023-07-13T06:46:20;9.25;;;7.15;;
23658;SDS011;12006;42.666;23.326;2023-07-13T06:48:46;8.27;;;6.70;;
23658;SDS011;12006;42.666;23.326;2023-07-13T06:51:12;7.07;;;6.32;;
23658;SDS011;12006;42.666;23.326;2023-07-13T06:53:37;8.05;;;6.95;;
23658;SDS011;12006;42.666;23.326;2023-07-13T06:56:02;8.07;;;7.38;;
23658;SDS011;12006;42.666;23.326;2023-07-13T06:58:28;8.52;;;7.72;;
23658;SDS011;12006;42.666;23.326;2023-07-13T07:00:54;7.63;;;6.95;;
23658;SDS011;12006;42.666;23.326;2023-07-13T07:03:19;8.07;;;7.38;;
23658;SDS011;12006;42.666;23.326;2023-07-13T07:05:45;8.40;;;7.35;;
23658;SDS011;12006;42.666;23.326;2023-07-13T07:08:10;10.40;;;7.90;;
23658;SDS011;12006;42.666;23.326;2023-07-13T07:10:36;7.93;;;6.72;;
23658;SDS011;12006;42.666;23.326;2023-07-13T07:13:01;10.05;;;7.85;;
23658;SDS011;12006;42.666;23.326;2023-07-13T07:15:28;9.55;;;8.27;;
23658;SDS011;12006;42.666;23.326;2023-07-13T07:17:54;9.00;;;8.10;;
23658;SDS011;12006;42.666;23.326;2023-07-13T07:20:19;10.10;;;9.13;;
23658;SDS011;12006;42.666;23.326;2023-07-13T07:22:45;9.38;;;8.48;;
23658;SDS011;12006;42.666;23.326;2023-07-13T07:25:11;8.48;;;7.75;;
23658;SDS011;12006;42.666;23.326;2023-07-13T07:27:36;7.68;;;6.97;;
23658;SDS011;12006;42.666;23.326;2023-07-13T07:30:02;10.25;;;9.32;;
23658;SDS011;12006;42.666;23.326;2023-07-13T07:32:29;11.20;;;6.75;;
23658;SDS011;12006;42.666;23.326;2023-07-13T07:34:55;8.10;;;7.28;;
23658;SDS011;12006;42.666;23.326;2023-07-13T07:37:21;8.07;;;6.82;;
23658;SDS011;12006;42.666;23.326;2023-07-13T07:39:47;6.93;;;6.32;;
23658;SDS011;12006;42.666;23.326;2023-07-13T07:42:13;8.90;;;8.00;;
23658;SDS011;12006;42.666;23.326;2023-07-13T07:44:39;16.92;;;13.70;;
23658;SDS011;12006;42.666;23.326;2023-07-13T07:47:05;8.38;;;7.57;;
23658;SDS011;12006;42.666;23.326;2023-07-13T07:49:31;7.22;;;6.53;;
23658;SDS011;12006;42.666;23.326;2023-07-13T07:51:56;8.50;;;7.63;;
23658;SDS011;12006;42.666;23.326;2023-07-13T07:54:22;8.73;;;7.32;;
23658;SDS011;12006;42.666;23.326;2023-07-13T07:56:47;9.50;;;8.60;;
23658;SDS011;12006;42.666;23.326;2023-07-13T07:59:12;7.63;;;6.85;;
23658;SDS011;12006;42.666;23.326;2023-07-13T08:01:38;7.75;;;7.05;;
23658;SDS011;12006;42.666;23.326;2023-07-13T08:04:03;9.38;;;8.45;;
23658;SDS011;12006;42.666;23.326;2023-07-13T08:06:29;9.02;;;7.40;;
23658;SDS011;12006;42.666;23.326;2023-07-13T08:08:58;8.77;;;7.93;;
23658;SDS011;12006;42.666;23.326;2023-07-13T08:11:24;12.82;;;11.52;;
23658;SDS011;12006;42.666;23.326;2023-07-13T08:13:49;8.63;;;7.82;;
23658;SDS011;12006;42.666;23.326;2023-07-13T08:16:15;9.20;;;7.82;;
23658;SDS011;12006;42.666;23.326;2023-07-13T08:18:41;8.68;;;7.60;;
23658;SDS011;12006;42.666;23.326;2023-07-13T08:21:07;11.68;;;9.80;;
23658;SDS011;12006;42.666;23.326;2023-07-13T08:23:33;8.75;;;8.05;;
23658;SDS011;12006;42.666;23.326;2023-07-13T08:26:00;8.20;;;7.15;;
23658;SDS011;12006;42.666;23.326;2023-07-13T08:28:29;7.25;;;6.55;;
23658;SDS011;12006;42.666;23.326;2023-07-13T08:30:59;7.72;;;6.97;;
23658;SDS011;12006;42.666;23.326;2023-07-13T08:33:25;8.52;;;6.30;;
23658;SDS011;12006;42.666;23.326;2023-07-13T08:35:51;10.60;;;8.27;;
23658;SDS011;12006;42.666;23.326;2023-07-13T08:38:17;8.05;;;7.22;;
23658;SDS011;12006;42.666;23.326;2023-07-13T08:40:43;8.23;;;7.43;;
23658;SDS011;12006;42.666;23.326;2023-07-13T08:43:17;7.53;;;6.93;;
23658;SDS011;12006;42.666;23.326;2023-07-13T08:46:24;7.30;;;6.60;;
23658;SDS011;12006;42.666;23.326;2023-07-13T08:49:02;10.15;;;8.20;;
23658;SDS011;12006;42.666;23.326;2023-07-13T08:54:00;8.88;;;8.07;;
23658;SDS011;12006;42.666;23.326;2023-07-13T08:56:30;7.80;;;7.10;;
23658;SDS011;12006;42.666;23.326;2023-07-13T08:58:58;10.45;;;9.10;;
23658;SDS011;12006;42.666;23.326;2023-07-13T09:01:33;9.80;;;8.80;;
23658;SDS011;12006;42.666;23.326;2023-07-13T09:04:14;9.85;;;7.45;;
23658;SDS011;12006;42.666;23.326;2023-07-13T09:07:06;9.40;;;7.57;;
23658;SDS011;12006;42.666;23.326;2023-07-13T09:15:46;23.65;;;21.30;;
23658;SDS011;12006;42.666;23.326;2023-07-13T09:18:16;9.25;;;8.05;;
23658;SDS011;12006;42.666;23.326;2023-07-13T09:20:50;13.60;;;12.20;;
23658;SDS011;12006;42.666;23.326;2023-07-13T09:23:20;9.00;;;8.00;;
23658;SDS011;12006;42.666;23.326;2023-07-13T09:25:49;12.98;;;11.55;;
23658;SDS011;12006;42.666;23.326;2023-07-13T09:28:26;12.20;;;11.00;;
23658;SDS011;12006;42.666;23.326;2023-07-13T09:30:58;10.38;;;9.48;;
23658;SDS011;12006;42.666;23.326;2023-07-13T09:33:25;7.75;;;6.78;;
23658;SDS011;12006;42.666;23.326;2023-07-13T09:35:54;8.07;;;7.38;;
23658;SDS011;12006;42.666;23.326;2023-07-13T09:38:21;10.27;;;9.23;;
23658;SDS011;12006;42.666;23.326;2023-07-13T09:43:23;9.10;;;7.93;;
23658;SDS011;12006;42.666;23.326;2023-07-13T09:45:49;8.85;;;7.55;;
23658;SDS011;12006;42.666;23.326;2023-07-13T09:48:16;11.07;;;9.98;;
23658;SDS011;12006;42.666;23.326;2023-07-13T09:50:43;10.52;;;9.40;;
23658;SDS011;12006;42.666;23.326;2023-07-13T09:53:13;11.73;;;10.52;;
23658;SDS011;12006;42.666;23.326;2023-07-13T09:55:44;8.52;;;7.68;;
23658;SDS011;12006;42.666;23.326;2023-07-13T09:58:12;8.38;;;7.70;;
23658;SDS011;12006;42.666;23.326;2023-07-13T10:00:38;8.55;;;7.70;;
23658;SDS011;12006;42.666;23.326;2023-07-13T10:03:23;8.40;;;7.63;;
23658;SDS011;12006;42.666;23.326;2023-07-13T10:05:51;8.70;;;7.80;;
23658;SDS011;12006;42.666;23.326;2023-07-13T10:08:25;8.10;;;7.30;;
23658;SDS011;12006;42.666;23.326;2023-07-13T10:11:02;8.13;;;7.32;;
23658;SDS011;12006;42.666;23.326;2023-07-13T10:13:36;8.15;;;7.22;;
23658;SDS011;12006;42.666;23.326;2023-07-13T10:16:06;8.52;;;7.30;;
23658;SDS011;12006;42.666;23.326;2023-07-13T10:18:39;8.95;;;7.63;;
23658;SDS011;12006;42.666;23.326;2023-07-13T10:21:14;9.63;;;8.63;;
23658;SDS011;12006;42.666;23.326;2023-07-13T10:23:43;7.93;;;6.65;;
23658;SDS011;12006;42.666;23.326;2023-07-13T10:26:14;5.88;;;5.18;;
23658;SDS011;12006;42.666;23.326;2023-07-13T10:28:45;6.03;;;4.55;;
23658;SDS011;12006;42.666;23.326;2023-07-13T10:31:16;4.40;;;4.00;;
23658;SDS011;12006;42.666;23.326;2023-07-13T10:33:42;5.25;;;3.70;;
23658;SDS011;12006;42.666;23.326;2023-07-13T10:36:13;4.35;;;4.00;;
23658;SDS011;12006;42.666;23.326;2023-07-13T10:38:53;5.90;;;4.10;;
23658;SDS011;12006;42.666;23.326;2023-07-13T10:41:22;4.03;;;3.63;;
23658;SDS011;12006;42.666;23.326;2023-07-13T10:43:51;4.35;;;3.55;;
23658;SDS011;12006;42.666;23.326;2023-07-13T10:46:20;4.88;;;3.83;;
23658;SDS011;12006;42.666;23.326;2023-07-13T10:48:54;5.68;;;4.45;;
23658;SDS011;12006;42.666;23.326;2023-07-13T10:51:22;4.65;;;4.13;;
23658;SDS011;12006;42.666;23.326;2023-07-13T10:56:44;7.25;;;3.88;;
23658;SDS011;12006;42.666;23.326;2023-07-13T11:04:22;5.43;;;4.57;;
23658;SDS011;12006;42.666;23.326;2023-07-13T11:06:50;4.88;;;3.60;;
23658;SDS011;12006;42.666;23.326;2023-07-13T11:09:37;5.28;;;4.20;;
23658;SDS011;12006;42.666;23.326;2023-07-13T11:12:09;5.00;;;4.40;;
23658;SDS011;12006;42.666;23.326;2023-07-13T11:22:49;5.30;;;3.97;;
23658;SDS011;12006;42.666;23.326;2023-07-13T11:33:14;6.40;;;4.43;;
23658;SDS011;12006;42.666;23.326;2023-07-13T11:35:53;5.00;;;4.40;;
23658;SDS011;12006;42.666;23.326;2023-07-13T11:41:15;4.78;;;3.80;;
23658;SDS011;12006;42.666;23.326;2023-07-13T11:43:45;4.50;;;4.10;;
23658;SDS011;12006;42.666;23.326;2023-07-13T11:48:45;4.63;;;4.22;;
23658;SDS011;12006;42.666;23.326;2023-07-13T11:51:34;4.63;;;4.18;;
23658;SDS011;12006;42.666;23.326;2023-07-13T11:54:04;5.22;;;4.30;;
23658;SDS011;12006;42.666;23.326;2023-07-13T11:56:33;4.63;;;4.13;;
23658;SDS011;12006;42.666;23.326;2023-07-13T11:58:59;5.20;;;4.30;;
23658;SDS011;12006;42.666;23.326;2023-07-13T12:01:31;5.20;;;4.13;;
23658;SDS011;12006;42.666;23.326;2023-07-13T12:04:02;5.60;;;4.38;;
23658;SDS011;12006;42.666;23.326;2023-07-13T12:06:29;5.78;;;3.65;;
23658;SDS011;12006;42.666;23.326;2023-07-13T12:09:00;4.88;;;3.55;;
23658;SDS011;12006;42.666;23.326;2023-07-13T12:11:28;5.13;;;4.20;;
23658;SDS011;12006;42.666;23.326;2023-07-13T12:13:54;5.05;;;3.60;;
23658;SDS011;12006;42.666;23.326;2023-07-13T12:16:28;5.18;;;4.68;;
23658;SDS011;12006;42.666;23.326;2023-07-13T12:18:57;6.30;;;3.85;;
23658;SDS011;12006;42.666;23.326;2023-07-13T12:21:29;5.18;;;3.63;;
23658;SDS011;12006;42.666;23.326;2023-07-13T12:23:57;4.80;;;4.07;;
23658;SDS011;12006;42.666;23.326;2023-07-13T12:26:23;7.78;;;4.57;;
23658;SDS011;12006;42.666;23.326;2023-07-13T12:28:50;6.07;;;4.72;;
23658;SDS011;12006;42.666;23.326;2023-07-13T12:36:38;6.63;;;3.97;;
23658;SDS011;12006;42.666;23.326;2023-07-13T12:39:16;4.82;;;4.10;;
23658;SDS011;12006;42.666;23.326;2023-07-13T12:42:00;4.00;;;3.55;;
23658;SDS011;12006;42.666;23.326;2023-07-13T12:44:46;5.45;;;4.20;;
23658;SDS011;12006;42.666;23.326;2023-07-13T12:47:13;6.97;;;5.13;;
23658;SDS011;12006;42.666;23.326;2023-07-13T12:49:41;5.88;;;5.32;;
23658;SDS011;12006;42.666;23.326;2023-07-13T12:52:31;6.78;;;5.40;;
23658;SDS011;12006;42.666;23.326;2023-07-13T12:55:02;6.32;;;5.68;;
23658;SDS011;12006;42.666;23.326;2023-07-13T12:57:30;8.40;;;5.43;;
23658;SDS011;12006;42.666;23.326;2023-07-13T12:59:55;12.60;;;11.32;;
23658;SDS011;12006;42.666;23.326;2023-07-13T13:02:31;7.25;;;5.95;;
23658;SDS011;12006;42.666;23.326;2023-07-13T13:05:02;10.32;;;7.78;;
23658;SDS011;12006;42.666;23.326;2023-07-13T13:07:29;5.80;;;5.25;;
23658;SDS011;12006;42.666;23.326;2023-07-13T13:09:54;6.20;;;5.30;;
23658;SDS011;12006;42.666;23.326;2023-07-13T13:12:21;6.60;;;6.10;;
23658;SDS011;12006;42.666;23.326;2023-07-13T13:14:47;7.20;;;6.50;;
23658;SDS011;12006;42.666;23.326;2023-07-13T13:17:17;6.65;;;5.85;;
23658;SDS011;12006;42.666;23.326;2023-07-13T13:19:45;7.07;;;6.40;;
23658;SDS011;12006;42.666;23.326;2023-07-13T13:22:11;7.68;;;6.38;;
23658;SDS011;12006;42.666;23.326;2023-07-13T13:24:37;6.88;;;6.13;;
23658;SDS011;12006;42.666;23.326;2023-07-13T13:27:03;5.97;;;5.47;;
23658;SDS011;12006;42.666;23.326;2023-07-13T13:29:28;5.80;;;5.40;;
23658;SDS011;12006;42.666;23.326;2023-07-13T13:31:57;6.68;;;5.57;;
23658;SDS011;12006;42.666;23.326;2023-07-13T13:34:23;6.90;;;6.32;;
23658;SDS011;12006;42.666;23.326;2023-07-13T13:36:49;6.32;;;4.78;;
23658;SDS011;12006;42.666;23.326;2023-07-13T13:39:21;6.22;;;5.63;;
23658;SDS011;12006;42.666;23.326;2023-07-13T13:41:49;7.72;;;5.18;;
23658;SDS011;12006;42.666;23.326;2023-07-13T13:44:15;5.90;;;4.35;;
23658;SDS011;12006;42.666;23.326;2023-07-13T13:46:43;7.55;;;6.07;;
23658;SDS011;12006;42.666;23.326;2023-07-13T13:49:13;6.10;;;5.15;;
23658;SDS011;12006;42.666;23.326;2023-07-13T13:51:41;6.32;;;4.88;;
23658;SDS011;12006;42.666;23.326;2023-07-13T13:54:10;7.57;;;4.90;;
23658;SDS011;12006;42.666;23.326;2023-07-13T13:56:37;5.60;;;5.10;;
23658;SDS011;12006;42.666;23.326;2023-07-13T13:59:02;5.85;;;5.35;;
23658;SDS011;12006;42.666;23.326;2023-07-13T14:01:29;7.70;;;5.70;;
23658;SDS011;12006;42.666;23.326;2023-07-13T14:03:56;8.52;;;6.70;;
23658;SDS011;12006;42.666;23.326;2023-07-13T14:06:22;7.15;;;4.03;;
23658;SDS011;12006;42.666;23.326;2023-07-13T14:08:47;6.93;;;4.30;;
23658;SDS011;12006;42.666;23.326;2023-07-13T14:11:14;4.88;;;3.85;;
23658;SDS011;12006;42.666;23.326;2023-07-13T14:13:42;5.35;;;4.53;;
23658;SDS011;12006;42.666;23.326;2023-07-13T14:16:12;4.70;;;4.20;;
23658;SDS011;12006;42.666;23.326;2023-07-13T14:18:42;6.85;;;5.55;;
23658;SDS011;12006;42.666;23.326;2023-07-13T14:21:13;6.22;;;5.05;;
23658;SDS011;12006;42.666;23.326;2023-07-13T14:23:38;5.03;;;4.15;;
23658;SDS011;12006;42.666;23.326;2023-07-13T14:26:08;5.10;;;4.15;;
23658;SDS011;12006;42.666;23.326;2023-07-13T14:28:39;6.22;;;3.90;;
23658;SDS011;12006;42.666;23.326;2023-07-13T14:31:08;6.38;;;4.47;;
23658;SDS011;12006;42.666;23.326;2023-07-13T14:33:35;5.32;;;4.05;;
23658;SDS011;12006;42.666;23.326;2023-07-13T14:36:00;5.95;;;4.20;;
23658;SDS011;12006;42.666;23.326;2023-07-13T14:38:27;6.50;;;4.68;;
23658;SDS011;12006;42.666;23.326;2023-07-13T14:40:52;7.45;;;4.47;;
23658;SDS011;12006;42.666;23.326;2023-07-13T14:43:17;6.78;;;5.18;;
23658;SDS011;12006;42.666;23.326;2023-07-13T14:45:44;7.05;;;5.05;;
23658;SDS011;12006;42.666;23.326;2023-07-13T14:48:13;5.05;;;4.53;;
23658;SDS011;12006;42.666;23.326;2023-07-13T14:50:44;7.38;;;4.25;;
23658;SDS011;12006;42.666;23.326;2023-07-13T14:53:10;10.40;;;9.30;;
23658;SDS011;12006;42.666;23.326;2023-07-13T14:55:36;3.85;;;3.42;;
23658;SDS011;12006;42.666;23.326;2023-07-13T14:58:02;6.43;;;4.03;;
23658;SDS011;12006;42.666;23.326;2023-07-13T15:00:28;6.07;;;4.45;;
23658;SDS011;12006;42.666;23.326;2023-07-13T15:02:55;6.75;;;3.90;;
23658;SDS011;12006;42.666;23.326;2023-07-13T15:05:26;6.32;;;4.72;;
23658;SDS011;12006;42.666;23.326;2023-07-13T15:07:56;8.75;;;4.90;;
23658;SDS011;12006;42.666;23.326;2023-07-13T15:10:27;9.13;;;7.05;;
23658;SDS011;12006;42.666;23.326;2023-07-13T15:12:59;6.00;;;5.43;;
23658;SDS011;12006;42.666;23.326;2023-07-13T15:15:29;5.78;;;4.80;;
23658;SDS011;12006;42.666;23.326;2023-07-13T15:17:57;6.13;;;5.00;;
23658;SDS011;12006;42.666;23.326;2023-07-13T15:20:27;5.85;;;5.30;;
23658;SDS011;12006;42.666;23.326;2023-07-13T15:22:55;6.38;;;4.50;;
23658;SDS011;12006;42.666;23.326;2023-07-13T15:25:22;5.68;;;3.80;;
23658;SDS011;12006;42.666;23.326;2023-07-13T15:27:49;6.63;;;4.30;;